Villa Nitza, Puerto Rico
Current Conditions -  °F | °C
As of 4:50 AM on Monday 24 Nov 2014 (Local Time) from TJPS Reporting Station
Few Clouds Few Clouds  
Wind Chill: 73°   Ceiling: Unl
Heat Index: 73°   Visibility: 8mi
Dew Point: 70°   Wind: 0mph
Humidity: 88%   Direction: NA
Pressure: 29.94"   Gusts: NA
Location:  18.4259°N, 66.4717°W
Report Text: TJPS 240850Z 00000KT 8SM FEW030 23/21 A2994
Loading
Personal Weather Stations






























Interactive Weather Map New forecast layout! Learn more

10-Day Weather Forecast

Advertisements
Track Severe Weather on mobile